< < Back
Terminal Aerodrome Forecast


Current Version              Previous Versions:   1  2  3  4  5  6  7  8  9  

Terminal Aerodrome Forecast

573
FTUS42 KFFC 272300
TAFPDK
TAF
KPDK 272320Z 2800/2824 00000KT P6SM SKC
     FM281400 VRB03KT P6SM FEW040
     FM281800 23004KT P6SM FEW060=

Latest METAR

454
SAUS70 KWBC 280300 RRJ
MTRPDK
METAR KPDK 280253Z AUTO 00000KT 10SM CLR 21/17 A3006 RMK AO2 SLP166
T02110172 53012


USA.gov is the U.S. government's official web portal to all federal, state and local government web resources and services.